Time;durP1;ratioP1;P1;durP2;ratioP2;P2;SDS_P1;SDS_P2;PMS_P1;PMS_P2;Temp;Humidity;BMP_temperature;BMP_pressure;BME280_temperature;BME280_humidity;BME280_pressure;Samples;Min_cycle;Max_cycle;Signal;HPM_P1;HPM_P2
2022/06/21 00:00:16;;;;;;;3.20;1.77;;;14.00;99.90;;;;;;5049376;28;20460;-67
2022/06/21 00:02:44;;;;;;;3.90;2.00;;;13.90;99.90;;;;;;5049615;28;20652;-66
2022/06/21 00:05:25;;;;;;;2.77;2.30;;;13.80;99.90;;;;;;5049392;28;20447;-66
2022/06/21 00:07:52;;;;;;;3.03;2.33;;;13.70;99.90;;;;;;5049335;28;20471;-66
2022/06/21 00:10:20;;;;;;;4.80;2.47;;;13.80;99.90;;;;;;5049019;28;20993;-66
2022/06/21 00:12:47;;;;;;;2.70;2.20;;;13.80;99.90;;;;;;5050701;28;20487;-66
2022/06/21 00:15:14;;;;;;;2.93;2.37;;;13.70;99.90;;;;;;5053275;28;20448;-66
2022/06/21 00:17:44;;;;;;;3.50;2.23;;;13.60;99.90;;;;;;5053383;28;20450;-66
2022/06/21 00:20:18;;;;;;;3.07;2.00;;;13.60;99.90;;;;;;5052935;28;20448;-66
2022/06/21 00:22:45;;;;;;;3.00;1.70;;;13.60;99.90;;;;;;5053009;28;21149;-66
2022/06/21 00:25:17;;;;;;;3.60;1.73;;;13.60;99.90;;;;;;5053236;28;20488;-66
2022/06/21 00:27:44;;;;;;;3.77;2.50;;;13.60;99.90;;;;;;5052894;28;20510;-66
2022/06/21 00:30:12;;;;;;;4.07;2.00;;;13.60;99.90;;;;;;5052880;28;20448;-66
2022/06/21 00:32:39;;;;;;;3.30;2.20;;;13.50;99.90;;;;;;5053086;28;20922;-66
2022/06/21 00:35:10;;;;;;;3.80;2.20;;;13.40;99.90;;;;;;5052984;28;20451;-66
2022/06/21 00:37:38;;;;;;;3.90;2.67;;;13.40;99.90;;;;;;5053026;28;20514;-66
2022/06/21 00:40:16;;;;;;;2.53;1.93;;;13.30;99.90;;;;;;5052658;28;20451;-67
2022/06/21 00:42:45;;;;;;;4.20;2.30;;;13.20;99.90;;;;;;5052769;28;20467;-66
2022/06/21 00:45:17;;;;;;;4.80;3.20;;;13.20;99.90;;;;;;5053075;28;20448;-66
2022/06/21 00:47:49;;;;;;;3.00;1.90;;;13.30;99.90;;;;;;5052929;28;21201;-66
2022/06/21 00:50:21;;;;;;;5.03;2.00;;;13.30;99.90;;;;;;5053043;28;20448;-66
2022/06/21 00:52:55;;;;;;;3.60;2.37;;;13.30;99.90;;;;;;5052923;28;20464;-67
2022/06/21 00:55:33;;;;;;;3.97;2.50;;;13.30;99.90;;;;;;5052823;28;20459;-66
2022/06/21 00:58:01;;;;;;;6.43;3.00;;;13.20;99.90;;;;;;5052546;28;20946;-67
2022/06/21 01:00:31;;;;;;;3.60;2.23;;;13.20;99.90;;;;;;5052596;28;20454;-66
2022/06/21 01:03:02;;;;;;;5.00;2.63;;;13.20;99.90;;;;;;5052545;28;20470;-66
2022/06/21 01:05:32;;;;;;;3.87;2.40;;;13.10;99.90;;;;;;5052692;28;20458;-66
2022/06/21 01:08:01;;;;;;;3.50;2.60;;;13.10;99.90;;;;;;5052337;28;20486;-66
2022/06/21 01:10:29;;;;;;;3.50;2.60;;;13.10;99.90;;;;;;5052072;28;20452;-66
2022/06/21 01:12:59;;;;;;;2.57;1.80;;;13.10;99.90;;;;;;5052421;28;20838;-65
2022/06/21 01:15:31;;;;;;;3.23;2.40;;;13.10;99.90;;;;;;5052426;28;20890;-66
2022/06/21 01:18:01;;;;;;;2.70;2.40;;;13.10;99.90;;;;;;5052405;28;20447;-66
2022/06/21 01:20:31;;;;;;;3.20;2.10;;;12.90;99.90;;;;;;5051823;28;20447;-65
2022/06/21 01:23:09;;;;;;;2.93;2.60;;;12.80;99.90;;;;;;5051973;28;20475;-66
2022/06/21 01:25:45;;;;;;;3.00;2.37;;;12.90;99.90;;;;;;5052118;28;20453;-66
2022/06/21 01:28:14;;;;;;;6.00;2.67;;;12.80;99.90;;;;;;5052014;28;20447;-66
2022/06/21 01:30:44;;;;;;;3.87;2.27;;;12.80;99.90;;;;;;5051743;28;20456;-66
2022/06/21 01:33:13;;;;;;;5.20;2.20;;;12.80;99.90;;;;;;5051920;28;20474;-67
2022/06/21 01:35:42;;;;;;;2.57;2.03;;;12.70;99.90;;;;;;5051541;28;20454;-66
2022/06/21 01:38:13;;;;;;;4.17;2.70;;;12.70;99.90;;;;;;5052018;28;20440;-66
2022/06/21 01:40:45;;;;;;;3.40;2.80;;;12.70;99.90;;;;;;5051533;28;20451;-66
2022/06/21 01:43:18;;;;;;;4.50;3.10;;;12.80;99.90;;;;;;5051839;28;20815;-67
2022/06/21 01:45:48;;;;;;;4.03;2.90;;;12.70;99.90;;;;;;5051688;28;20458;-65
2022/06/21 01:48:20;;;;;;;3.27;2.50;;;12.70;99.90;;;;;;5051616;28;20942;-65
2022/06/21 01:50:50;;;;;;;6.80;3.03;;;12.70;99.90;;;;;;5051278;28;20454;-66
2022/06/21 01:53:20;;;;;;;5.63;3.00;;;12.70;99.90;;;;;;5051424;28;20468;-66
2022/06/21 01:55:53;;;;;;;3.30;2.83;;;12.70;99.90;;;;;;5051567;28;20459;-66
2022/06/21 01:58:26;;;;;;;3.63;2.90;;;12.70;99.90;;;;;;5051425;28;20942;-66
2022/06/21 02:00:57;;;;;;;3.50;2.60;;;12.70;99.90;;;;;;5051443;28;20444;-66
2022/06/21 02:03:30;;;;;;;4.03;2.80;;;12.60;99.90;;;;;;5051490;28;20468;-66
2022/06/21 02:06:00;;;;;;;3.90;3.00;;;12.60;99.90;;;;;;5051312;28;20448;-66
2022/06/21 02:08:35;;;;;;;3.50;2.97;;;12.60;99.90;;;;;;5051356;28;20460;-66
2022/06/21 02:11:06;;;;;;;5.23;2.67;;;12.50;99.90;;;;;;5050912;28;20988;-66
2022/06/21 02:13:39;;;;;;;3.23;2.37;;;12.50;99.90;;;;;;5051467;28;20455;-66
2022/06/21 02:16:13;;;;;;;2.80;2.30;;;12.50;99.90;;;;;;5051057;28;20956;-66
2022/06/21 02:18:43;;;;;;;3.40;2.93;;;12.50;99.90;;;;;;5050964;28;20837;-66
2022/06/21 02:21:15;;;;;;;4.33;3.00;;;12.40;99.90;;;;;;5050849;28;20448;-65
2022/06/21 02:23:42;;;;;;;4.30;2.90;;;12.30;99.90;;;;;;5051035;28;20456;-66
2022/06/21 02:26:11;;;;;;;3.60;3.30;;;12.30;99.90;;;;;;5050828;28;20440;-66
2022/06/21 02:28:40;;;;;;;3.70;2.87;;;12.40;99.90;;;;;;5050921;28;20448;-66
2022/06/21 02:31:09;;;;;;;5.73;2.97;;;12.30;99.90;;;;;;5050489;28;20452;-66
2022/06/21 02:33:37;;;;;;;3.90;3.23;;;12.30;99.90;;;;;;5050716;28;20452;-65
2022/06/21 02:36:11;;;;;;;4.37;2.93;;;12.30;99.90;;;;;;5050075;28;20533;-66
2022/06/21 02:38:43;;;;;;;3.30;2.80;;;12.30;99.90;;;;;;5050850;28;20443;-66
2022/06/21 02:41:13;;;;;;;3.40;2.70;;;12.30;99.90;;;;;;5050224;28;21144;-64
2022/06/21 02:43:44;;;;;;;3.50;3.20;;;12.40;99.90;;;;;;5050516;28;20515;-66
2022/06/21 02:46:16;;;;;;;4.47;3.00;;;12.30;99.90;;;;;;5050587;28;20443;-66
2022/06/21 02:48:48;;;;;;;9.90;3.00;;;12.30;99.90;;;;;;5050321;28;20907;-66
2022/06/21 02:51:20;;;;;;;3.60;3.20;;;12.30;99.90;;;;;;5050091;28;20448;-64
2022/06/21 02:53:53;;;;;;;4.03;3.23;;;12.40;99.90;;;;;;5050361;28;20514;-67
2022/06/21 02:56:26;;;;;;;6.03;2.83;;;12.40;99.90;;;;;;5050468;28;20864;-65
2022/06/21 02:58:57;;;;;;;3.03;2.73;;;12.50;99.90;;;;;;5050239;28;20452;-67
2022/06/21 03:01:28;;;;;;;3.80;3.07;;;12.40;99.90;;;;;;5050216;28;20484;-66
2022/06/21 03:03:57;;;;;;;3.23;2.77;;;12.30;99.90;;;;;;5050319;28;20448;-66
2022/06/21 03:06:24;;;;;;;2.60;2.30;;;12.30;99.90;;;;;;5050205;28;20458;-66
2022/06/21 03:08:56;;;;;;;3.80;3.20;;;12.40;99.90;;;;;;5050177;28;20463;-65
2022/06/21 03:11:27;;;;;;;3.53;2.80;;;12.40;99.90;;;;;;5049753;28;20451;-66
2022/06/21 03:13:57;;;;;;;5.90;3.27;;;12.30;99.90;;;;;;5050474;28;20444;-66
2022/06/21 03:16:24;;;;;;;4.10;3.20;;;12.30;99.90;;;;;;5050012;28;20451;-67
2022/06/21 03:18:53;;;;;;;7.33;3.10;;;12.30;99.90;;;;;;5050303;28;20443;-65
2022/06/21 03:21:27;;;;;;;3.93;2.97;;;12.20;99.90;;;;;;5049724;28;20442;-66
2022/06/21 03:23:56;;;;;;;3.07;2.77;;;12.20;99.90;;;;;;5050195;28;20431;-64
2022/06/21 03:26:24;;;;;;;5.30;3.00;;;12.20;99.90;;;;;;5050319;28;20819;-66
2022/06/21 03:28:53;;;;;;;4.90;3.60;;;12.20;99.90;;;;;;5050387;28;20472;-65
2022/06/21 03:31:25;;;;;;;5.20;3.40;;;12.30;99.90;;;;;;5049590;28;20450;-66
2022/06/21 03:33:56;;;;;;;7.70;2.80;;;12.30;99.90;;;;;;5050005;28;20440;-66
2022/06/21 03:36:25;;;;;;;5.87;3.30;;;12.20;99.90;;;;;;5049693;28;20454;-66
2022/06/21 03:38:58;;;;;;;7.50;4.80;;;12.20;99.90;;;;;;5050000;28;20448;-66
2022/06/21 03:41:43;;;;;;;5.50;4.80;;;12.20;99.90;;;;;;5049443;28;20462;-66
2022/06/21 03:44:19;;;;;;;8.50;6.97;;;12.20;99.90;;;;;;5049808;28;20806;-65
2022/06/21 03:46:52;;;;;;;19.07;6.30;;;12.20;99.90;;;;;;5048951;28;20444;-66
2022/06/21 03:49:28;;;;;;;8.63;6.80;;;12.20;99.90;;;;;;5049376;28;20448;-67
2022/06/21 03:51:56;;;;;;;8.07;5.87;;;12.30;99.90;;;;;;5049384;28;20904;-67
2022/06/21 03:54:27;;;;;;;10.40;4.30;;;12.40;99.90;;;;;;5049681;28;20452;-66
2022/06/21 03:56:59;;;;;;;4.83;4.33;;;12.50;99.90;;;;;;5049535;28;21031;-66
2022/06/21 03:59:31;;;;;;;7.07;4.57;;;12.60;99.90;;;;;;5049549;28;20479;-66
2022/06/21 04:02:04;;;;;;;6.43;4.27;;;12.70;99.90;;;;;;5048715;28;20478;-66
2022/06/21 04:04:35;;;;;;;6.23;4.40;;;12.80;99.90;;;;;;5049561;28;20976;-66
2022/06/21 04:07:07;;;;;;;5.50;4.00;;;12.90;99.90;;;;;;5049543;28;20892;-66
2022/06/21 04:09:42;;;;;;;11.57;6.30;;;13.10;99.90;;;;;;5049337;28;20451;-66
2022/06/21 04:12:15;;;;;;;6.70;4.70;;;13.20;99.90;;;;;;5049310;28;20563;-66
2022/06/21 04:14:48;;;;;;;4.47;3.80;;;13.30;99.90;;;;;;5049285;28;20452;-65
2022/06/21 04:17:25;;;;;;;5.73;2.80;;;13.60;99.90;;;;;;5049235;28;20488;-66
2022/06/21 04:19:58;;;;;;;5.43;2.97;;;13.70;99.90;;;;;;5048981;28;20463;-65
2022/06/21 04:22:31;;;;;;;4.67;3.30;;;13.90;99.90;;;;;;5049076;28;20478;-66
2022/06/21 04:25:06;;;;;;;4.63;2.83;;;14.00;99.90;;;;;;5049003;28;20451;-66
2022/06/21 04:27:37;;;;;;;5.27;3.27;;;14.20;99.90;;;;;;5049359;28;20443;-65
2022/06/21 04:30:09;;;;;;;5.13;3.20;;;14.30;99.90;;;;;;5048533;28;21154;-66
2022/06/21 04:32:41;;;;;;;4.23;3.00;;;14.30;99.90;;;;;;5049323;28;20472;-66
2022/06/21 04:35:13;;;;;;;5.70;3.00;;;14.30;99.90;;;;;;5044781;28;20448;-66
2022/06/21 04:37:46;;;;;;;3.70;3.03;;;14.50;99.90;;;;;;5045638;28;20546;-66
2022/06/21 04:40:24;;;;;;;2.90;2.53;;;14.50;99.90;;;;;;5048611;28;20456;-67
2022/06/21 04:42:58;;;;;;;4.50;2.83;;;14.70;99.90;;;;;;5048944;28;20470;-66
2022/06/21 04:45:32;;;;;;;4.40;2.80;;;14.90;99.90;;;;;;5048742;28;20452;-66
2022/06/21 04:48:11;;;;;;;4.80;3.50;;;15.10;99.90;;;;;;5049397;28;20824;-67
2022/06/21 04:50:43;;;;;;;3.37;2.93;;;15.40;99.90;;;;;;5048484;28;20453;-65
2022/06/21 04:53:15;;;;;;;5.53;3.03;;;15.50;99.90;;;;;;5048922;28;20486;-66
2022/06/21 04:55:52;;;;;;;3.60;2.30;;;15.60;99.90;;;;;;5048681;28;20537;-66
2022/06/21 04:58:18;;;;;;;6.37;3.07;;;15.70;99.90;;;;;;5049225;28;20486;-66
2022/06/21 05:00:45;;;;;;;7.03;2.67;;;15.70;99.90;;;;;;5052140;28;20962;-66
2022/06/21 05:03:26;;;;;;;3.50;2.53;;;15.70;99.90;;;;;;5052462;28;20866;-67
2022/06/21 05:05:53;;;;;;;3.83;2.87;;;15.70;99.90;;;;;;5052320;28;20454;-67
2022/06/21 05:08:22;;;;;;;4.40;2.87;;;15.70;99.90;;;;;;5052100;28;20452;-66
2022/06/21 05:10:51;;;;;;;4.87;2.90;;;15.70;99.90;;;;;;5052184;28;20458;-66
2022/06/21 05:13:25;;;;;;;5.43;2.73;;;15.60;99.90;;;;;;5052235;28;20986;-66
2022/06/21 05:15:53;;;;;;;4.53;3.43;;;15.70;99.90;;;;;;5052713;28;20811;-66
2022/06/21 05:18:29;;;;;;;3.00;2.43;;;15.80;99.90;;;;;;5050161;28;20518;-66
2022/06/21 05:21:02;;;;;;;6.70;2.70;;;16.00;99.90;;;;;;5050495;28;20448;-65
2022/06/21 05:23:29;;;;;;;5.03;3.40;;;16.10;99.90;;;;;;5047238;28;20463;-66
2022/06/21 05:26:00;;;;;;;5.23;2.70;;;16.30;99.90;;;;;;5063107;28;21043;-66
2022/06/21 05:28:33;;;;;;;3.70;2.73;;;16.50;99.90;;;;;;5047823;28;20481;-66
2022/06/21 05:31:04;;;;;;;5.23;2.30;;;16.50;99.90;;;;;;5046910;28;20448;-66
2022/06/21 05:33:37;;;;;;;4.93;2.93;;;16.60;99.90;;;;;;5050668;28;20476;-67
2022/06/21 05:36:10;;;;;;;5.00;2.63;;;16.60;99.90;;;;;;5051911;28;20452;-66
2022/06/21 05:38:47;;;;;;;3.93;2.87;;;16.80;99.90;;;;;;5051741;28;20488;-67
2022/06/21 05:41:30;;;;;;;5.40;2.80;;;16.80;99.90;;;;;;5051159;28;20451;-65
2022/06/21 05:44:01;;;;;;;4.83;2.70;;;17.00;99.90;;;;;;5051564;28;21203;-66
2022/06/21 05:46:30;;;;;;;5.27;2.60;;;17.30;99.90;;;;;;5051508;28;20455;-67
2022/06/21 05:48:59;;;;;;;5.70;2.67;;;17.60;99.90;;;;;;5051594;28;21140;-65
2022/06/21 05:51:30;;;;;;;4.30;2.10;;;17.90;99.90;;;;;;5051048;28;20451;-67
2022/06/21 05:54:02;;;;;;;4.37;2.80;;;18.20;99.90;;;;;;5051488;28;20458;-66
2022/06/21 05:56:30;;;;;;;5.10;2.30;;;18.40;99.90;;;;;;5051521;28;20479;-65
2022/06/21 05:59:01;;;;;;;3.47;2.70;;;18.80;99.90;;;;;;5050890;28;20997;-66
2022/06/21 06:01:31;;;;;;;4.67;2.50;;;19.00;99.90;;;;;;5051052;28;20454;-66
2022/06/21 06:04:06;;;;;;;4.67;2.40;;;19.20;99.90;;;;;;5051489;28;20456;-67
2022/06/21 06:06:36;;;;;;;4.63;2.17;;;19.40;99.90;;;;;;5051151;28;20444;-67
2022/06/21 06:09:07;;;;;;;4.40;2.50;;;19.40;99.90;;;;;;5051246;28;20529;-67
2022/06/21 06:14:34;;;;;;;4.13;2.20;;;19.40;99.90;;;;;;5040756;28;20978;-67
2022/06/21 06:17:04;;;;;;;5.80;2.47;;;19.40;99.90;;;;;;5039974;28;20455;-69
2022/06/21 06:19:35;;;;;;;4.10;2.27;;;19.40;99.90;;;;;;5041165;28;20436;-68
2022/06/21 06:22:21;;;;;;;4.20;2.17;;;19.40;99.90;;;;;;5044353;28;20478;-67
2022/06/21 06:24:54;;;;;;;4.00;2.60;;;19.40;99.90;;;;;;5049715;28;20443;-67
2022/06/21 06:27:30;;;;;;;4.87;2.50;;;19.30;99.90;;;;;;5047242;28;20445;-67
2022/06/21 06:30:01;;;;;;;4.70;2.47;;;19.10;99.90;;;;;;5047736;28;20443;-68
2022/06/21 06:32:33;;;;;;;3.70;2.10;;;19.10;99.90;;;;;;5050512;28;20487;-66
2022/06/21 06:35:02;;;;;;;4.00;2.20;;;19.10;99.90;;;;;;5045351;28;20460;-68
2022/06/21 06:37:36;;;;;;;6.10;2.70;;;19.00;99.90;;;;;;5041550;28;20537;-67
2022/06/21 06:40:05;;;;;;;4.83;2.57;;;18.90;99.90;;;;;;5043272;28;21000;-67
2022/06/21 06:42:37;;;;;;;4.30;2.50;;;19.00;99.90;;;;;;5045559;28;20476;-67
2022/06/21 06:45:12;;;;;;;4.93;2.27;;;19.10;99.90;;;;;;5042546;28;20452;-68
2022/06/21 06:47:45;;;;;;;4.60;2.30;;;19.10;99.90;;;;;;5044670;28;20518;-67
2022/06/21 06:50:21;;;;;;;4.77;2.30;;;19.00;99.90;;;;;;5047206;28;21064;-67
2022/06/21 06:52:52;;;;;;;5.90;2.23;;;19.00;99.90;;;;;;5046029;28;20468;-68
2022/06/21 06:55:26;;;;;;;4.87;2.17;;;19.10;99.90;;;;;;5050285;28;20450;-68
2022/06/21 06:57:58;;;;;;;4.57;2.27;;;19.10;99.90;;;;;;5045168;28;20488;-68
2022/06/21 07:00:31;;;;;;;3.40;2.20;;;19.10;99.90;;;;;;5040027;28;20459;-68
2022/06/21 07:03:03;;;;;;;4.40;2.23;;;19.30;99.90;;;;;;5046107;28;20459;-68
2022/06/21 07:05:36;;;;;;;4.20;2.17;;;19.40;99.90;;;;;;5048218;28;20436;-68
2022/06/21 07:08:12;;;;;;;6.53;2.70;;;19.50;99.90;;;;;;5048025;28;20506;-68
2022/06/21 07:10:39;;;;;;;3.80;2.23;;;19.70;99.90;;;;;;5047737;28;20494;-68
2022/06/21 07:13:08;;;;;;;2.80;2.10;;;19.70;99.70;;;;;;5048106;28;20650;-68
2022/06/21 07:15:40;;;;;;;3.27;2.37;;;19.80;99.90;;;;;;5048623;28;20602;-68
2022/06/21 07:18:13;;;;;;;5.37;2.50;;;20.00;99.90;;;;;;5050115;28;20911;-67
2022/06/21 07:20:44;;;;;;;2.97;2.00;;;20.20;99.20;;;;;;5049815;28;20501;-68
2022/06/21 07:23:15;;;;;;;3.10;2.00;;;20.30;99.40;;;;;;5049836;28;20851;-68
2022/06/21 07:25:45;;;;;;;4.20;2.57;;;20.50;99.30;;;;;;5049972;28;20810;-67
2022/06/21 07:28:19;;;;;;;4.37;2.20;;;20.60;99.30;;;;;;5049900;28;20439;-68
2022/06/21 07:30:48;;;;;;;3.67;2.10;;;21.00;98.90;;;;;;5049692;28;20436;-68
2022/06/21 07:33:21;;;;;;;5.17;2.43;;;21.60;97.30;;;;;;5049659;28;20555;-68
2022/06/21 07:35:53;;;;;;;3.83;2.27;;;22.00;98.10;;;;;;5049683;28;20452;-68
2022/06/21 07:38:26;;;;;;;4.27;2.10;;;22.30;96.40;;;;;;5049928;28;20487;-68
2022/06/21 07:41:00;;;;;;;3.80;2.03;;;22.50;94.40;;;;;;5049586;28;20447;-68
2022/06/21 07:43:33;;;;;;;2.70;2.00;;;22.20;95.90;;;;;;5050003;28;20464;-68
2022/06/21 07:46:02;;;;;;;3.63;2.27;;;22.50;95.50;;;;;;5049677;28;20455;-68
2022/06/21 07:48:38;;;;;;;2.97;1.87;;;22.80;96.00;;;;;;5049521;28;20448;-68
2022/06/21 07:51:10;;;;;;;3.17;2.10;;;23.00;94.60;;;;;;5049598;28;20440;-68
2022/06/21 07:53:41;;;;;;;5.37;2.13;;;22.90;93.00;;;;;;5049850;28;20440;-68
2022/06/21 07:56:13;;;;;;;3.37;2.50;;;22.40;94.10;;;;;;5049501;28;20531;-68
2022/06/21 07:58:46;;;;;;;3.20;2.03;;;22.10;94.70;;;;;;5049470;28;20879;-67
2022/06/21 08:07:02;;;;;;;4.63;2.97;;;22.40;93.80;;;;;;5049732;28;20415;-68
2022/06/21 08:09:35;;;;;;;3.60;2.30;;;22.40;96.00;;;;;;5049683;28;20440;-67
2022/06/21 08:12:02;;;;;;;4.57;2.37;;;22.60;95.20;;;;;;5049062;28;20807;-68
2022/06/21 08:14:31;;;;;;;3.40;2.17;;;22.70;94.40;;;;;;5049730;28;20443;-68
2022/06/21 08:17:05;;;;;;;7.13;3.27;;;22.70;93.10;;;;;;5049491;28;20478;-67
2022/06/21 08:19:40;;;;;;;4.80;2.27;;;22.70;94.70;;;;;;5049410;28;20483;-69
2022/06/21 08:22:13;;;;;;;5.57;2.17;;;22.80;95.10;;;;;;5048871;28;21005;-68
2022/06/21 08:24:46;;;;;;;5.63;2.40;;;22.80;93.90;;;;;;5049363;28;20498;-68
2022/06/21 08:27:20;;;;;;;4.40;2.00;;;22.90;94.30;;;;;;5049115;28;20456;-68
2022/06/21 08:29:54;;;;;;;3.47;2.30;;;23.10;94.70;;;;;;5049472;28;20452;-66
2022/06/21 08:32:28;;;;;;;3.90;2.43;;;23.40;94.20;;;;;;5049120;28;20478;-68
2022/06/21 08:34:59;;;;;;;3.47;2.43;;;23.80;93.60;;;;;;5053644;28;20492;-68
2022/06/21 08:37:35;;;;;;;3.63;2.13;;;23.90;93.70;;;;;;5053540;28;20448;-68
2022/06/21 08:40:14;;;;;;;3.53;2.10;;;24.10;92.40;;;;;;5052975;28;21228;-67
2022/06/21 08:43:17;;;;;;;2.90;2.30;;;24.00;92.40;;;;;;5053064;28;21000;-68
2022/06/21 08:46:19;;;;;;;3.77;2.13;;;24.10;93.70;;;;;;5053364;28;20446;-68
2022/06/21 08:49:23;;;;;;;4.97;2.40;;;24.50;92.80;;;;;;5044912;28;20444;-68
2022/06/21 08:52:20;;;;;;;5.00;2.37;;;24.90;92.70;;;;;;5052920;28;20503;-67
2022/06/21 08:55:01;;;;;;;3.87;2.63;;;24.70;91.20;;;;;;5049676;28;20893;-68
2022/06/21 08:57:39;;;;;;;3.53;2.20;;;24.80;92.40;;;;;;5052816;28;20459;-68
2022/06/21 09:00:15;;;;;;;5.77;3.13;;;24.90;91.70;;;;;;5052407;28;20485;-67
2022/06/21 09:02:57;;;;;;;4.40;2.20;;;25.10;91.60;;;;;;5052718;28;20506;-68
2022/06/21 09:05:49;;;;;;;3.33;2.30;;;25.40;91.50;;;;;;5052890;28;20537;-68
2022/06/21 09:08:35;;;;;;;2.53;1.93;;;25.80;91.80;;;;;;5052620;28;20456;-69
2022/06/21 09:11:16;;;;;;;5.73;2.57;;;25.70;91.20;;;;;;5052300;28;20538;-69
2022/06/21 09:14:01;;;;;;;4.63;2.70;;;25.80;90.30;;;;;;5052410;28;21129;-68
2022/06/21 09:16:36;;;;;;;5.83;2.73;;;25.90;91.50;;;;;;5052432;28;20447;-68
2022/06/21 09:19:17;;;;;;;5.20;2.80;;;26.20;91.00;;;;;;5052338;28;20862;-69
2022/06/21 09:21:51;;;;;;;4.90;2.57;;;26.10;90.30;;;;;;5051973;28;20468;-67
2022/06/21 09:24:31;;;;;;;3.60;2.20;;;26.50;90.40;;;;;;5052064;28;20448;-68
2022/06/21 09:27:06;;;;;;;3.33;2.30;;;26.80;88.60;;;;;;5052108;28;20458;-68
2022/06/21 09:29:38;;;;;;;4.70;2.60;;;26.80;90.50;;;;;;5051997;28;20964;-68
2022/06/21 09:32:23;;;;;;;4.00;2.10;;;26.50;86.40;;;;;;5051702;28;20464;-68
2022/06/21 09:35:09;;;;;;;3.93;2.43;;;26.40;89.70;;;;;;5051827;28;20463;-68
2022/06/21 09:37:52;;;;;;;6.20;2.67;;;26.30;87.00;;;;;;5052137;28;20456;-66
2022/06/21 09:40:27;;;;;;;3.80;2.20;;;26.10;89.30;;;;;;5051473;28;20495;-68
2022/06/21 09:43:15;;;;;;;3.23;2.13;;;26.10;88.90;;;;;;5051655;28;20467;-68
2022/06/21 09:45:50;;;;;;;4.67;2.13;;;26.30;88.60;;;;;;5051834;28;20494;-67
2022/06/21 09:48:23;;;;;;;3.73;2.40;;;26.40;90.00;;;;;;5051673;28;20456;-68
2022/06/21 09:50:58;;;;;;;3.80;2.37;;;26.70;87.80;;;;;;5051458;28;20448;-67
2022/06/21 09:53:38;;;;;;;3.80;2.37;;;26.80;88.70;;;;;;5051486;28;20993;-68
2022/06/21 09:56:16;;;;;;;8.37;2.57;;;26.60;85.50;;;;;;5051763;28;20459;-68
2022/06/21 09:58:53;;;;;;;7.00;2.17;;;26.80;87.10;;;;;;5051375;28;20494;-68
2022/06/21 10:01:29;;;;;;;5.43;2.30;;;27.00;86.70;;;;;;5051142;28;20969;-68
2022/06/21 10:04:00;;;;;;;6.80;2.37;;;27.20;85.00;;;;;;5051405;28;20498;-68
2022/06/21 10:06:35;;;;;;;4.37;2.50;;;27.70;86.90;;;;;;5051601;28;20444;-67
2022/06/21 10:09:13;;;;;;;4.30;2.60;;;28.60;84.20;;;;;;5051171;28;20458;-68
2022/06/21 10:11:51;;;;;;;4.23;2.87;;;29.00;80.90;;;;;;5051027;28;20487;-68
2022/06/21 10:14:34;;;;;;;3.10;2.23;;;29.40;83.30;;;;;;5051087;28;20497;-68
2022/06/21 10:17:20;;;;;;;4.53;2.40;;;30.00;77.70;;;;;;5051133;28;20996;-68
2022/06/21 10:20:00;;;;;;;3.20;2.07;;;30.50;80.00;;;;;;5050988;28;20480;-67
2022/06/21 10:22:45;;;;;;;4.13;2.40;;;30.90;76.90;;;;;;5051076;28;20555;-69
2022/06/21 10:25:36;;;;;;;3.60;2.40;;;31.40;74.00;;;;;;5051058;28;20452;-68
2022/06/21 10:28:43;;;;;;;3.20;2.60;;;31.90;71.50;;;;;;5051236;28;20452;-68
2022/06/21 10:31:34;;;;;;;4.43;2.33;;;31.90;72.20;;;;;;5050635;28;20435;-67
2022/06/21 10:34:39;;;;;;;4.03;2.30;;;31.90;71.70;;;;;;5050952;28;20934;-68
2022/06/21 10:37:28;;;;;;;8.00;2.80;;;32.10;68.30;;;;;;5000437;28;20444;-68
2022/06/21 10:40:22;;;;;;;4.97;2.60;;;32.20;71.10;;;;;;5034873;28;20553;-69
2022/06/21 10:43:31;;;;;;;3.73;2.60;;;32.00;70.30;;;;;;5050679;28;20730;-68
2022/06/21 10:46:00;;;;;;;4.47;3.30;;;31.90;74.20;;;;;;5003045;28;20444;-69
2022/06/21 10:48:48;;;;;;;3.77;2.30;;;31.70;71.20;;;;;;5050749;28;20448;-68
2022/06/21 10:51:26;;;;;;;2.80;2.40;;;31.60;70.20;;;;;;5050357;28;20454;-67
2022/06/21 10:54:06;;;;;;;4.87;2.70;;;31.50;70.80;;;;;;5050503;28;20493;-68
2022/06/21 11:02:43;;;;;;;4.20;2.70;;;31.90;68.30;;;;;;5050331;28;20444;-67
2022/06/21 11:05:17;;;;;;;3.40;2.67;;;32.40;75.00;;;;;;5050513;28;20446;-68
2022/06/21 11:07:50;;;;;;;5.57;2.70;;;32.80;68.80;;;;;;5050295;28;20466;-68
2022/06/21 11:10:23;;;;;;;4.47;2.53;;;33.00;70.00;;;;;;5050337;28;20452;-68
2022/06/21 11:12:53;;;;;;;5.00;3.43;;;33.00;68.20;;;;;;5050127;28;20500;-68
2022/06/21 11:15:30;;;;;;;4.90;2.70;;;32.50;68.00;;;;;;5050330;28;20448;-69
2022/06/21 11:18:08;;;;;;;4.60;2.77;;;32.80;66.80;;;;;;5050486;28;20466;-68
2022/06/21 11:20:46;;;;;;;3.80;2.47;;;33.40;70.60;;;;;;5050151;28;20854;-68
2022/06/21 11:23:24;;;;;;;3.00;2.67;;;33.60;67.00;;;;;;5050219;28;20460;-68
2022/06/21 11:25:58;;;;;;;3.23;2.50;;;33.70;65.70;;;;;;5050298;28;20447;-68
2022/06/21 11:28:36;;;;;;;4.30;2.73;;;33.60;63.60;;;;;;5050213;28;20478;-68
2022/06/21 11:31:12;;;;;;;3.60;2.67;;;34.00;64.20;;;;;;5049531;28;20538;-68
2022/06/21 11:33:50;;;;;;;7.43;2.63;;;34.10;61.90;;;;;;5049906;28;20463;-69
2022/06/21 11:36:28;;;;;;;5.23;2.80;;;34.00;64.30;;;;;;5050141;28;20444;-68
2022/06/21 11:39:05;;;;;;;8.07;2.77;;;34.00;63.50;;;;;;5049853;28;20963;-68
2022/06/21 11:42:05;;;;;;;4.43;2.90;;;33.60;64.50;;;;;;5046960;28;20494;-68
2022/06/21 11:44:54;;;;;;;4.60;3.13;;;33.50;67.20;;;;;;5044344;28;20489;-67
2022/06/21 11:47:35;;;;;;;4.10;3.13;;;33.00;65.20;;;;;;5036951;28;20448;-69
2022/06/21 11:50:11;;;;;;;5.90;3.37;;;32.40;64.00;;;;;;5040633;28;20446;-69
2022/06/21 11:53:18;;;;;;;5.80;3.20;;;31.90;70.40;;;;;;5039044;28;20468;-69
2022/06/21 11:55:49;;;;;;;3.60;3.07;;;32.00;70.00;;;;;;5039368;28;20685;-68
2022/06/21 11:58:26;;;;;;;3.77;2.90;;;32.20;67.30;;;;;;5039056;28;20452;-70
2022/06/21 12:01:00;;;;;;;4.93;3.60;;;31.90;68.80;;;;;;5038642;28;20859;-70
2022/06/21 12:03:38;;;;;;;3.90;3.00;;;31.40;68.30;;;;;;5049160;28;20571;-71
2022/06/21 12:06:11;;;;;;;4.93;2.90;;;31.10;71.90;;;;;;5041029;28;20459;-72
2022/06/21 12:08:48;;;;;;;3.63;3.00;;;30.70;68.80;;;;;;5035932;28;20863;-72
2022/06/21 12:11:20;;;;;;;3.40;2.93;;;30.60;73.20;;;;;;5047948;28;20448;-71
2022/06/21 12:13:59;;;;;;;5.80;3.57;;;30.60;73.10;;;;;;5042555;28;21034;-71
2022/06/21 12:16:36;;;;;;;4.10;3.20;;;30.60;76.60;;;;;;5044654;28;20444;-70
2022/06/21 12:19:07;;;;;;;4.07;3.37;;;30.80;74.90;;;;;;5050765;28;20435;-71
2022/06/21 12:21:40;;;;;;;4.03;3.63;;;31.10;74.90;;;;;;5051403;28;20515;-72
2022/06/21 12:24:14;;;;;;;7.70;3.50;;;31.70;72.50;;;;;;5051818;28;20543;-72
2022/06/21 12:26:43;;;;;;;5.10;3.47;;;31.90;72.70;;;;;;5050812;28;20455;-71
2022/06/21 12:29:15;;;;;;;5.40;3.40;;;31.90;71.20;;;;;;5049009;28;20470;-71
2022/06/21 12:31:48;;;;;;;4.43;3.97;;;32.00;71.50;;;;;;5049890;28;20467;-70
2022/06/21 12:34:24;;;;;;;5.30;4.20;;;31.70;70.70;;;;;;5050722;28;20961;-70
2022/06/21 12:36:56;;;;;;;5.80;3.40;;;31.30;73.40;;;;;;5051947;28;20455;-72
2022/06/21 12:39:29;;;;;;;6.97;3.63;;;31.60;71.70;;;;;;5051335;28;20545;-72
2022/06/21 12:42:05;;;;;;;4.37;3.80;;;31.90;71.30;;;;;;5050734;28;21044;-71
2022/06/21 12:44:49;;;;;;;8.10;3.70;;;32.00;73.40;;;;;;5051565;28;20456;-71
2022/06/21 12:47:29;;;;;;;6.13;3.43;;;33.10;75.40;;;;;;5049427;28;20456;-72
2022/06/21 12:50:30;;;;;;;3.97;3.57;;;34.00;69.10;;;;;;5038940;28;20456;-72
2022/06/21 12:53:10;;;;;;;3.83;3.43;;;35.20;65.80;;;;;;5041103;28;20467;-72
2022/06/21 12:55:47;;;;;;;4.83;3.10;;;35.30;63.20;;;;;;5039507;28;20451;-73
2022/06/21 12:58:25;;;;;;;9.50;4.03;;;34.70;65.10;;;;;;5050496;28;20440;-72
2022/06/21 13:00:54;;;;;;;4.47;3.30;;;34.80;63.90;;;;;;5046924;28;20490;-71
2022/06/21 13:03:52;;;;;;;4.13;3.73;;;34.60;65.00;;;;;;5051298;28;20475;-71
2022/06/21 13:06:36;;;;;;;5.50;3.63;;;34.10;67.90;;;;;;5050515;28;20451;-71
2022/06/21 13:09:23;;;;;;;4.17;3.77;;;34.10;69.60;;;;;;5012219;28;1104629;-72
2022/06/21 13:12:21;;;;;;;5.70;4.30;;;34.30;67.60;;;;;;5049993;28;20221;-71
2022/06/21 13:15:05;;;;;;;5.80;4.07;;;34.50;68.20;;;;;;5011017;28;20558;-72
2022/06/21 13:18:03;;;;;;;4.70;3.90;;;35.10;62.20;;;;;;5052150;28;20458;-71
2022/06/21 13:20:38;;;;;;;4.60;3.43;;;34.60;64.90;;;;;;5051481;28;20584;-70
2022/06/21 13:23:13;;;;;;;5.20;3.87;;;34.60;65.70;;;;;;5051936;28;20474;-70
2022/06/21 13:25:51;;;;;;;5.33;4.03;;;34.80;70.60;;;;;;5050157;28;20504;-70
2022/06/21 13:28:35;;;;;;;4.90;3.83;;;35.50;61.90;;;;;;5052570;28;20494;-72
2022/06/21 13:31:10;;;;;;;5.40;3.80;;;35.90;63.60;;;;;;5051704;28;20825;-72
2022/06/21 13:34:05;;;;;;;4.47;3.80;;;36.30;67.60;;;;;;5051901;28;21228;-72
2022/06/21 13:36:40;;;;;;;4.13;3.73;;;36.90;59.20;;;;;;5033901;28;20475;-72
2022/06/21 13:39:23;;;;;;;4.97;3.80;;;37.20;59.50;;;;;;5051884;28;21258;-71